SWA8241 KLAX-KOAK
Flight info
| Callsign | SWA8241 |
|---|---|
| Flight time | 0h 51m |
| Altitude | 38000 |
| Route | SUMMR2 RIZIN RGOOD EMZOH3 |
| Aircraft | B738/M-SDE2E3FGHIRWXY/LB1 |
Departure
| Time | 2026-05-05 04:41 |
|---|---|
| Airport | Los Angeles International Airport (KLAX) |
Arrival
| Time | 2026-05-05 05:33 |
|---|---|
| Airport | San Francisco Bay Oakland International Airport (KOAK) |
| Time | Latitude | Longitude | Altitude | Speed | Heading |
|---|---|---|---|---|---|
| 2026-05-05 04:26 | 33.94146 | -118.41415 | 125 ft | 0 kts | 262° |
| 2026-05-05 04:26 | 33.94148 | -118.41397 | 120 ft | 3 kts | 262° |
| 2026-05-05 04:26 | 33.94151 | -118.41375 | 120 ft | 3 kts | 262° |
| 2026-05-05 04:27 | 33.94154 | -118.41352 | 121 ft | 3 kts | 262° |
| 2026-05-05 04:27 | 33.94156 | -118.41330 | 121 ft | 3 kts | 262° |
| 2026-05-05 04:27 | 33.94159 | -118.41307 | 121 ft | 3 kts | 262° |
| 2026-05-05 04:27 | 33.94162 | -118.41285 | 122 ft | 3 kts | 262° |
| 2026-05-05 04:28 | 33.94164 | -118.41262 | 124 ft | 3 kts | 262° |
| 2026-05-05 04:28 | 33.94167 | -118.41240 | 124 ft | 3 kts | 267° |
| 2026-05-05 04:28 | 33.94163 | -118.41222 | 123 ft | 0 kts | 324° |
| 2026-05-05 04:31 | 33.94164 | -118.41223 | 123 ft | 2 kts | 321° |
| 2026-05-05 04:32 | 33.94191 | -118.41299 | 125 ft | 10 kts | 309° |
| 2026-05-05 04:32 | 33.94209 | -118.41310 | 123 ft | 3 kts | 340° |
| 2026-05-05 04:32 | 33.94233 | -118.41317 | 122 ft | 4 kts | 349° |
| 2026-05-05 04:32 | 33.94286 | -118.41328 | 123 ft | 14 kts | 354° |
| 2026-05-05 04:33 | 33.94429 | -118.41346 | 124 ft | 27 kts | 352° |
| 2026-05-05 04:33 | 33.94632 | -118.41375 | 123 ft | 30 kts | 353° |
| 2026-05-05 04:33 | 33.94791 | -118.41414 | 122 ft | 20 kts | 319° |
| 2026-05-05 04:33 | 33.94798 | -118.41495 | 124 ft | 7 kts | 211° |
| 2026-05-05 04:34 | 33.94769 | -118.41458 | 124 ft | 3 kts | 98° |
| 2026-05-05 04:34 | 33.94761 | -118.41449 | 123 ft | 5 kts | 155° |
| 2026-05-05 04:34 | 33.94748 | -118.41521 | 120 ft | 17 kts | 275° |
| 2026-05-05 04:34 | 33.94735 | -118.41721 | 125 ft | 30 kts | 264° |
| 2026-05-05 04:35 | 33.94719 | -118.41878 | 125 ft | 1 kts | 253° |
| 2026-05-05 04:35 | 33.94681 | -118.41887 | 122 ft | 7 kts | 129° |
| 2026-05-05 04:35 | 33.94730 | -118.41771 | 122 ft | 30 kts | 75° |
| 2026-05-05 04:35 | 33.94764 | -118.41456 | 123 ft | 40 kts | 81° |
| 2026-05-05 04:36 | 33.94810 | -118.41134 | 125 ft | 38 kts | 82° |
| 2026-05-05 04:36 | 33.94844 | -118.40802 | 125 ft | 42 kts | 83° |
| 2026-05-05 04:36 | 33.94876 | -118.40488 | 122 ft | 40 kts | 82° |
| 2026-05-05 04:36 | 33.94909 | -118.40168 | 123 ft | 30 kts | 83° |
| 2026-05-05 04:37 | 33.94918 | -118.40090 | 123 ft | 9 kts | 82° |
| 2026-05-05 04:37 | 33.94925 | -118.40015 | 125 ft | 2 kts | 83° |
| 2026-05-05 04:37 | 33.94928 | -118.39988 | 125 ft | 8 kts | 82° |
| 2026-05-05 04:37 | 33.94952 | -118.39930 | 123 ft | 0 kts | 41° |
| 2026-05-05 04:38 | 33.94957 | -118.39924 | 122 ft | 2 kts | 39° |
| 2026-05-05 04:38 | 33.94962 | -118.39921 | 123 ft | 4 kts | 27° |
| 2026-05-05 04:38 | 33.95037 | -118.39949 | 123 ft | 12 kts | 289° |
| 2026-05-05 04:38 | 33.95038 | -118.39969 | 124 ft | 1 kts | 269° |
| 2026-05-05 04:39 | 33.95038 | -118.39971 | 124 ft | 0 kts | 267° |
| 2026-05-05 04:41 | 33.95025 | -118.40126 | 125 ft | 59 kts | 263° |
| 2026-05-05 04:41 | 33.94935 | -118.40983 | 125 ft | 144 kts | 263° |
| 2026-05-05 04:41 | 33.94802 | -118.42402 | 542 ft | 183 kts | 263° |
| 2026-05-05 04:41 | 33.94662 | -118.43882 | 1820 ft | 170 kts | 263° |
| 2026-05-05 04:42 | 33.94510 | -118.45344 | 2621 ft | 190 kts | 262° |
| 2026-05-05 04:42 | 33.94343 | -118.47003 | 3005 ft | 214 kts | 264° |
| 2026-05-05 04:42 | 33.94262 | -118.48899 | 3333 ft | 241 kts | 267° |
| 2026-05-05 04:42 | 33.94209 | -118.50983 | 4067 ft | 252 kts | 267° |
| 2026-05-05 04:43 | 33.94076 | -118.53101 | 5053 ft | 256 kts | 263° |
| 2026-05-05 04:43 | 33.93897 | -118.55252 | 5993 ft | 261 kts | 263° |
| 2026-05-05 04:43 | 33.93716 | -118.57428 | 6985 ft | 261 kts | 263° |
| 2026-05-05 04:43 | 33.93537 | -118.59630 | 7611 ft | 266 kts | 263° |
| 2026-05-05 04:44 | 33.93559 | -118.61876 | 7952 ft | 271 kts | 281° |
| 2026-05-05 04:44 | 33.94427 | -118.63878 | 8005 ft | 275 kts | 309° |
| 2026-05-05 04:44 | 33.95928 | -118.65350 | 8012 ft | 282 kts | 325° |
| 2026-05-05 04:44 | 33.97600 | -118.66588 | 8007 ft | 282 kts | 326° |
| 2026-05-05 04:45 | 33.99383 | -118.67573 | 7982 ft | 285 kts | 347° |
| 2026-05-05 04:45 | 34.01364 | -118.67702 | 8009 ft | 286 kts | 360° |
| 2026-05-05 04:45 | 34.03352 | -118.67562 | 8010 ft | 286 kts | 1° |
| 2026-05-05 04:45 | 34.05339 | -118.67400 | 8007 ft | 287 kts | 1° |
| 2026-05-05 04:46 | 34.07330 | -118.67251 | 8005 ft | 287 kts | 1° |
| 2026-05-05 04:46 | 34.09323 | -118.66940 | 8145 ft | 291 kts | 8° |
| 2026-05-05 04:46 | 34.11323 | -118.66461 | 9006 ft | 293 kts | 10° |
| 2026-05-05 04:46 | 34.13338 | -118.65935 | 9872 ft | 301 kts | 10° |
| 2026-05-05 04:47 | 34.15416 | -118.65409 | 10465 ft | 315 kts | 9° |
| 2026-05-05 04:47 | 34.17654 | -118.64864 | 10693 ft | 341 kts | 9° |
| 2026-05-05 04:47 | 34.20056 | -118.64291 | 11042 ft | 360 kts | 9° |
| 2026-05-05 04:47 | 34.22536 | -118.63703 | 11782 ft | 366 kts | 8° |
| 2026-05-05 04:48 | 34.25067 | -118.63336 | 12504 ft | 369 kts | 354° |
| 2026-05-05 04:48 | 34.27599 | -118.63839 | 13283 ft | 370 kts | 345° |
| 2026-05-05 04:48 | 34.30130 | -118.64485 | 14087 ft | 374 kts | 345° |
| 2026-05-05 04:48 | 34.32697 | -118.65125 | 14773 ft | 379 kts | 345° |
| 2026-05-05 04:49 | 34.35305 | -118.65745 | 15463 ft | 385 kts | 346° |
| 2026-05-05 04:49 | 34.37944 | -118.66359 | 16101 ft | 390 kts | 345° |
| 2026-05-05 04:49 | 34.40629 | -118.66968 | 16744 ft | 395 kts | 346° |
| 2026-05-05 04:49 | 34.43295 | -118.67768 | 17444 ft | 394 kts | 333° |
| 2026-05-05 04:50 | 34.45681 | -118.69360 | 18171 ft | 392 kts | 324° |
| 2026-05-05 04:50 | 34.48018 | -118.71104 | 18758 ft | 397 kts | 324° |
| 2026-05-05 04:50 | 34.50391 | -118.72852 | 19346 ft | 401 kts | 324° |
| 2026-05-05 04:50 | 34.52801 | -118.74584 | 19958 ft | 404 kts | 325° |
| 2026-05-05 04:51 | 34.55202 | -118.76285 | 20569 ft | 407 kts | 325° |
| 2026-05-05 04:51 | 34.57660 | -118.78023 | 21177 ft | 410 kts | 325° |
| 2026-05-05 04:51 | 34.60138 | -118.79775 | 21713 ft | 415 kts | 326° |
| 2026-05-05 04:51 | 34.62645 | -118.81552 | 22219 ft | 420 kts | 325° |
| 2026-05-05 04:52 | 34.65174 | -118.83347 | 22805 ft | 422 kts | 325° |
| 2026-05-05 04:52 | 34.67723 | -118.85155 | 23359 ft | 425 kts | 325° |
| 2026-05-05 04:52 | 34.70291 | -118.86976 | 23786 ft | 430 kts | 325° |
| 2026-05-05 04:52 | 34.72886 | -118.88815 | 24208 ft | 433 kts | 324° |
| 2026-05-05 04:53 | 34.75498 | -118.90669 | 24648 ft | 436 kts | 324° |
| 2026-05-05 04:53 | 34.78125 | -118.92538 | 25080 ft | 439 kts | 324° |
| 2026-05-05 04:53 | 34.80771 | -118.94422 | 25458 ft | 442 kts | 324° |
| 2026-05-05 04:53 | 34.83436 | -118.96327 | 25894 ft | 445 kts | 324° |
| 2026-05-05 04:54 | 34.86101 | -118.98232 | 26407 ft | 445 kts | 323° |
| 2026-05-05 04:54 | 34.88780 | -119.00149 | 26768 ft | 449 kts | 323° |
| 2026-05-05 04:54 | 34.91496 | -119.02092 | 27062 ft | 455 kts | 323° |
| 2026-05-05 04:54 | 34.94235 | -119.04050 | 27475 ft | 457 kts | 323° |
| 2026-05-05 04:55 | 34.96981 | -119.06017 | 27853 ft | 460 kts | 323° |
| 2026-05-05 04:55 | 34.99745 | -119.07998 | 28231 ft | 462 kts | 323° |
| 2026-05-05 04:55 | 35.02525 | -119.09995 | 28556 ft | 465 kts | 323° |
| 2026-05-05 04:55 | 35.05321 | -119.12006 | 28850 ft | 468 kts | 323° |
| 2026-05-05 04:56 | 35.08137 | -119.14032 | 29204 ft | 471 kts | 323° |
| 2026-05-05 04:56 | 35.10964 | -119.16065 | 29535 ft | 473 kts | 323° |
| 2026-05-05 04:56 | 35.13810 | -119.18112 | 29829 ft | 476 kts | 323° |
| 2026-05-05 04:56 | 35.16672 | -119.20171 | 30136 ft | 478 kts | 323° |
| 2026-05-05 04:57 | 35.19537 | -119.22231 | 30553 ft | 476 kts | 323° |
| 2026-05-05 04:57 | 35.22383 | -119.24278 | 30974 ft | 474 kts | 323° |
| 2026-05-05 04:57 | 35.25220 | -119.26323 | 31382 ft | 473 kts | 324° |
| 2026-05-05 04:57 | 35.28054 | -119.28368 | 31750 ft | 472 kts | 324° |
| 2026-05-05 04:58 | 35.30885 | -119.30413 | 32055 ft | 473 kts | 324° |
| 2026-05-05 04:58 | 35.33720 | -119.32463 | 32352 ft | 474 kts | 324° |
| 2026-05-05 04:58 | 35.36556 | -119.34515 | 32711 ft | 473 kts | 324° |
| 2026-05-05 04:58 | 35.39382 | -119.36560 | 33102 ft | 472 kts | 324° |
| 2026-05-05 04:59 | 35.42206 | -119.38606 | 33413 ft | 472 kts | 324° |
| 2026-05-05 04:59 | 35.45035 | -119.40658 | 33697 ft | 473 kts | 324° |
| 2026-05-05 04:59 | 35.47865 | -119.42711 | 33999 ft | 473 kts | 324° |
| 2026-05-05 04:59 | 35.50697 | -119.44767 | 34278 ft | 472 kts | 324° |
| 2026-05-05 05:00 | 35.53527 | -119.46824 | 34551 ft | 472 kts | 325° |
| 2026-05-05 05:00 | 35.56292 | -119.48881 | 34850 ft | 470 kts | 322° |
| 2026-05-05 05:00 | 35.58944 | -119.51290 | 35108 ft | 467 kts | 316° |
| 2026-05-05 05:00 | 35.61393 | -119.53825 | 35311 ft | 467 kts | 314° |
| 2026-05-05 05:01 | 35.63833 | -119.56458 | 35551 ft | 467 kts | 315° |
| 2026-05-05 05:01 | 35.66278 | -119.59090 | 35811 ft | 467 kts | 315° |
| 2026-05-05 05:01 | 35.68736 | -119.61692 | 36066 ft | 467 kts | 315° |
| 2026-05-05 05:01 | 35.71220 | -119.64276 | 36287 ft | 468 kts | 316° |
| 2026-05-05 05:02 | 35.73721 | -119.66850 | 36461 ft | 470 kts | 316° |
| 2026-05-05 05:02 | 35.76233 | -119.69422 | 36708 ft | 470 kts | 316° |
| 2026-05-05 05:02 | 35.78742 | -119.71988 | 36957 ft | 469 kts | 316° |
| 2026-05-05 05:02 | 35.81249 | -119.74556 | 37186 ft | 469 kts | 316° |
| 2026-05-05 05:03 | 35.83758 | -119.77132 | 37387 ft | 470 kts | 316° |
| 2026-05-05 05:03 | 35.86268 | -119.79711 | 37594 ft | 470 kts | 316° |
| 2026-05-05 05:03 | 35.88778 | -119.82295 | 37818 ft | 470 kts | 316° |
| 2026-05-05 05:03 | 35.91277 | -119.84881 | 37993 ft | 469 kts | 315° |
| 2026-05-05 05:04 | 35.93695 | -119.87577 | 37990 ft | 468 kts | 313° |
| 2026-05-05 05:04 | 35.95675 | -119.89916 | 38001 ft | 468 kts | 312° |
| 2026-05-05 05:05 | 35.99231 | -119.94224 | 38021 ft | 467 kts | 311° |
| 2026-05-05 05:05 | 36.03875 | -119.99841 | 38026 ft | 468 kts | 312° |
| 2026-05-05 05:06 | 36.08552 | -120.05430 | 38017 ft | 468 kts | 313° |
| 2026-05-05 05:06 | 36.13240 | -120.11010 | 38016 ft | 468 kts | 313° |
| 2026-05-05 05:07 | 36.17923 | -120.16590 | 38023 ft | 467 kts | 313° |
| 2026-05-05 05:07 | 36.22597 | -120.22169 | 38025 ft | 467 kts | 314° |
| 2026-05-05 05:08 | 36.27262 | -120.27751 | 38019 ft | 466 kts | 314° |
| 2026-05-05 05:08 | 36.30343 | -120.31443 | 38024 ft | 465 kts | 314° |
| 2026-05-05 05:09 | 36.33511 | -120.35243 | 37974 ft | 460 kts | 314° |
| 2026-05-05 05:09 | 36.35793 | -120.37982 | 37561 ft | 454 kts | 314° |
| 2026-05-05 05:10 | 36.38032 | -120.40673 | 36808 ft | 456 kts | 315° |
| 2026-05-05 05:10 | 36.40324 | -120.43431 | 35949 ft | 461 kts | 315° |
| 2026-05-05 05:10 | 36.42637 | -120.46216 | 35138 ft | 465 kts | 317° |
| 2026-05-05 05:10 | 36.44966 | -120.49022 | 34341 ft | 468 kts | 316° |
| 2026-05-05 05:11 | 36.47307 | -120.51845 | 33490 ft | 470 kts | 317° |
| 2026-05-05 05:11 | 36.49662 | -120.54686 | 32585 ft | 473 kts | 318° |
| 2026-05-05 05:11 | 36.52026 | -120.57542 | 31698 ft | 475 kts | 319° |
| 2026-05-05 05:11 | 36.54398 | -120.60398 | 30839 ft | 476 kts | 321° |
| 2026-05-05 05:12 | 36.56838 | -120.63178 | 29992 ft | 476 kts | 324° |
| 2026-05-05 05:12 | 36.59323 | -120.65901 | 29010 ft | 476 kts | 324° |
| 2026-05-05 05:12 | 36.61818 | -120.68609 | 28059 ft | 476 kts | 323° |
| 2026-05-05 05:12 | 36.64306 | -120.71323 | 27147 ft | 476 kts | 323° |
| 2026-05-05 05:13 | 36.66783 | -120.74047 | 26259 ft | 475 kts | 322° |
| 2026-05-05 05:13 | 36.69251 | -120.76779 | 25373 ft | 473 kts | 323° |
| 2026-05-05 05:13 | 36.71704 | -120.79503 | 24531 ft | 472 kts | 323° |
| 2026-05-05 05:13 | 36.74149 | -120.82224 | 23715 ft | 470 kts | 322° |
| 2026-05-05 05:14 | 36.76578 | -120.84932 | 23015 ft | 464 kts | 322° |
| 2026-05-05 05:14 | 36.78930 | -120.87557 | 22645 ft | 450 kts | 322° |
| 2026-05-05 05:14 | 36.81230 | -120.90116 | 22211 ft | 439 kts | 322° |
| 2026-05-05 05:14 | 36.83490 | -120.92624 | 21717 ft | 430 kts | 322° |
| 2026-05-05 05:15 | 36.85711 | -120.95087 | 21212 ft | 423 kts | 322° |
| 2026-05-05 05:15 | 36.87533 | -120.97107 | 20826 ft | 418 kts | 322° |
| 2026-05-05 05:15 | 36.89692 | -120.99501 | 20337 ft | 412 kts | 322° |
| 2026-05-05 05:15 | 36.91818 | -121.01862 | 19885 ft | 406 kts | 322° |
| 2026-05-05 05:16 | 36.93919 | -121.04196 | 19418 ft | 401 kts | 321° |
| 2026-05-05 05:16 | 36.95994 | -121.06504 | 18966 ft | 397 kts | 321° |
| 2026-05-05 05:16 | 36.98045 | -121.08787 | 18518 ft | 393 kts | 321° |
| 2026-05-05 05:16 | 37.00082 | -121.11057 | 18004 ft | 390 kts | 321° |
| 2026-05-05 05:17 | 37.02095 | -121.13303 | 17529 ft | 385 kts | 321° |
| 2026-05-05 05:17 | 37.04084 | -121.15522 | 17072 ft | 381 kts | 321° |
| 2026-05-05 05:17 | 37.06048 | -121.17715 | 16630 ft | 376 kts | 321° |
| 2026-05-05 05:17 | 37.07985 | -121.19878 | 16193 ft | 371 kts | 321° |
| 2026-05-05 05:18 | 37.09896 | -121.22014 | 15776 ft | 366 kts | 320° |
| 2026-05-05 05:18 | 37.11759 | -121.24101 | 15349 ft | 362 kts | 320° |
| 2026-05-05 05:18 | 37.13628 | -121.26200 | 14881 ft | 359 kts | 320° |
| 2026-05-05 05:18 | 37.15458 | -121.28304 | 14483 ft | 355 kts | 319° |
| 2026-05-05 05:19 | 37.17257 | -121.30402 | 14081 ft | 351 kts | 319° |
| 2026-05-05 05:19 | 37.19030 | -121.32475 | 13653 ft | 347 kts | 319° |
| 2026-05-05 05:19 | 37.20789 | -121.34529 | 13218 ft | 344 kts | 318° |
| 2026-05-05 05:19 | 37.22530 | -121.36559 | 12827 ft | 340 kts | 318° |
| 2026-05-05 05:20 | 37.24250 | -121.38564 | 12440 ft | 336 kts | 318° |
| 2026-05-05 05:20 | 37.25953 | -121.40548 | 12064 ft | 332 kts | 318° |
| 2026-05-05 05:20 | 37.27641 | -121.42515 | 11703 ft | 330 kts | 318° |
| 2026-05-05 05:20 | 37.29314 | -121.44464 | 11339 ft | 327 kts | 318° |
| 2026-05-05 05:21 | 37.30975 | -121.46399 | 10976 ft | 324 kts | 317° |
| 2026-05-05 05:21 | 37.32618 | -121.48316 | 10626 ft | 321 kts | 317° |
| 2026-05-05 05:21 | 37.34242 | -121.50212 | 10352 ft | 315 kts | 317° |
| 2026-05-05 05:21 | 37.35869 | -121.52115 | 9868 ft | 317 kts | 317° |
| 2026-05-05 05:22 | 37.37442 | -121.53957 | 9875 ft | 302 kts | 317° |
| 2026-05-05 05:22 | 37.38963 | -121.55707 | 9800 ft | 291 kts | 318° |
| 2026-05-05 05:22 | 37.40438 | -121.57386 | 9723 ft | 281 kts | 318° |
| 2026-05-05 05:22 | 37.41869 | -121.59016 | 9539 ft | 275 kts | 317° |
| 2026-05-05 05:23 | 37.43284 | -121.60632 | 9227 ft | 275 kts | 317° |
| 2026-05-05 05:23 | 37.44620 | -121.62339 | 8908 ft | 274 kts | 307° |
| 2026-05-05 05:23 | 37.45728 | -121.64281 | 8620 ft | 272 kts | 303° |
| 2026-05-05 05:23 | 37.46796 | -121.66235 | 8389 ft | 269 kts | 304° |
| 2026-05-05 05:24 | 37.47868 | -121.68164 | 8110 ft | 268 kts | 303° |
| 2026-05-05 05:24 | 37.48940 | -121.70081 | 7806 ft | 268 kts | 303° |
| 2026-05-05 05:24 | 37.50022 | -121.71991 | 7522 ft | 268 kts | 303° |
| 2026-05-05 05:24 | 37.51104 | -121.73891 | 7273 ft | 266 kts | 304° |
| 2026-05-05 05:25 | 37.52178 | -121.75781 | 7019 ft | 265 kts | 303° |
| 2026-05-05 05:25 | 37.52871 | -121.77043 | 6838 ft | 264 kts | 298° |
| 2026-05-05 05:25 | 37.53403 | -121.79208 | 6486 ft | 259 kts | 275° |
| 2026-05-05 05:25 | 37.53623 | -121.81460 | 6160 ft | 260 kts | 276° |
| 2026-05-05 05:26 | 37.53902 | -121.83709 | 5857 ft | 257 kts | 277° |
| 2026-05-05 05:26 | 37.54161 | -121.85931 | 5600 ft | 257 kts | 275° |
| 2026-05-05 05:26 | 37.54412 | -121.88155 | 5330 ft | 256 kts | 276° |
| 2026-05-05 05:26 | 37.54665 | -121.90373 | 5036 ft | 255 kts | 275° |
| 2026-05-05 05:27 | 37.54919 | -121.92586 | 4751 ft | 254 kts | 276° |
| 2026-05-05 05:27 | 37.55169 | -121.94742 | 4583 ft | 241 kts | 276° |
| 2026-05-05 05:27 | 37.55619 | -121.98583 | 4325 ft | 203 kts | 275° |
| 2026-05-05 05:28 | 37.56039 | -122.00188 | 4283 ft | 192 kts | 304° |
| 2026-05-05 05:28 | 37.56968 | -122.01428 | 4085 ft | 197 kts | 308° |
| 2026-05-05 05:28 | 37.57821 | -122.02741 | 3836 ft | 190 kts | 306° |
| 2026-05-05 05:28 | 37.58635 | -122.04010 | 3589 ft | 184 kts | 306° |
| 2026-05-05 05:29 | 37.59447 | -122.05251 | 3340 ft | 182 kts | 306° |
| 2026-05-05 05:29 | 37.60242 | -122.06457 | 3100 ft | 177 kts | 307° |
| 2026-05-05 05:29 | 37.61036 | -122.07661 | 2858 ft | 180 kts | 308° |
| 2026-05-05 05:29 | 37.61839 | -122.08872 | 2620 ft | 177 kts | 308° |
| 2026-05-05 05:30 | 37.62624 | -122.10058 | 2369 ft | 176 kts | 308° |
| 2026-05-05 05:30 | 37.63383 | -122.11202 | 2119 ft | 162 kts | 308° |
| 2026-05-05 05:30 | 37.64066 | -122.12231 | 1901 ft | 145 kts | 307° |
| 2026-05-05 05:30 | 37.64688 | -122.13171 | 1726 ft | 138 kts | 308° |
| 2026-05-05 05:31 | 37.65300 | -122.14096 | 1543 ft | 137 kts | 308° |
| 2026-05-05 05:31 | 37.65913 | -122.15021 | 1354 ft | 137 kts | 308° |
| 2026-05-05 05:31 | 37.66523 | -122.15941 | 1172 ft | 136 kts | 308° |
| 2026-05-05 05:31 | 37.67128 | -122.16853 | 970 ft | 135 kts | 308° |
| 2026-05-05 05:32 | 37.67735 | -122.17769 | 797 ft | 137 kts | 309° |
| 2026-05-05 05:32 | 37.68347 | -122.18691 | 615 ft | 137 kts | 308° |
| 2026-05-05 05:32 | 37.68948 | -122.19598 | 430 ft | 134 kts | 309° |
| 2026-05-05 05:32 | 37.69550 | -122.20507 | 253 ft | 136 kts | 310° |
| 2026-05-05 05:33 | 37.70157 | -122.21430 | 73 ft | 136 kts | 309° |
| 2026-05-05 05:33 | 37.70673 | -122.22217 | 5 ft | 61 kts | 309° |
| 2026-05-05 05:33 | 37.70719 | -122.22286 | 5 ft | 0 kts | 292° |
| 2026-05-05 05:33 | 37.70761 | -122.22349 | 4 ft | 22 kts | 312° |
| 2026-05-05 05:34 | 37.70883 | -122.22509 | 3 ft | 28 kts | 322° |
| 2026-05-05 05:34 | 37.71067 | -122.22626 | 4 ft | 29 kts | 348° |
| 2026-05-05 05:34 | 37.71221 | -122.22518 | 9 ft | 29 kts | 48° |
| 2026-05-05 05:34 | 37.71341 | -122.22336 | 12 ft | 22 kts | 65° |
| 2026-05-05 05:35 | 37.71364 | -122.22134 | 11 ft | 27 kts | 39° |
| 2026-05-05 05:35 | 37.71495 | -122.21988 | 13 ft | 19 kts | 11° |
| 2026-05-05 05:35 | 37.71619 | -122.22055 | 13 ft | 21 kts | 15° |
| 2026-05-05 05:35 | 37.71705 | -122.21915 | 16 ft | 23 kts | 44° |